createdAt,value
2017-07-26T00:01:25.901Z,12.97
2017-07-26T00:03:53.964Z,14.00
2017-07-26T00:06:22.049Z,12.50
2017-07-26T00:08:50.356Z,16.03
2017-07-26T00:11:18.414Z,13.73
2017-07-26T00:13:46.475Z,12.30
2017-07-26T00:16:15.510Z,15.63
2017-07-26T00:18:43.540Z,13.30
2017-07-26T00:21:11.892Z,14.17
2017-07-26T00:23:40.360Z,15.60
2017-07-26T00:26:08.422Z,15.70
2017-07-26T00:28:37.169Z,15.80
2017-07-26T00:31:05.212Z,13.43
2017-07-26T00:33:33.541Z,14.13
2017-07-26T00:36:01.597Z,13.93
2017-07-26T00:38:29.670Z,16.57
2017-07-26T00:40:57.717Z,15.00
2017-07-26T00:43:25.799Z,12.63
2017-07-26T00:45:54.132Z,13.33
2017-07-26T00:48:22.198Z,12.97
2017-07-26T00:50:50.240Z,13.23
2017-07-26T00:53:18.886Z,13.30
2017-07-26T00:55:46.980Z,12.00
2017-07-26T00:58:15.322Z,12.70
2017-07-26T01:00:43.392Z,13.73
2017-07-26T01:03:11.434Z,11.40
2017-07-26T01:05:39.993Z,12.40
2017-07-26T01:08:08.049Z,11.20
2017-07-26T01:10:36.360Z,12.83
2017-07-26T01:13:04.444Z,13.60
2017-07-26T01:15:32.483Z,13.73
2017-07-26T01:18:00.545Z,12.90
2017-07-26T01:20:28.622Z,13.80
2017-07-26T01:22:56.950Z,13.70
2017-07-26T01:25:24.996Z,14.13
2017-07-26T01:27:53.068Z,13.10
2017-07-26T01:30:21.152Z,13.10
2017-07-26T01:32:49.783Z,14.17
2017-07-26T01:35:18.096Z,18.37
2017-07-26T01:37:46.181Z,12.50
2017-07-26T01:40:14.223Z,14.23
2017-07-26T01:42:43.444Z,12.63
2017-07-26T01:45:11.498Z,12.37
2017-07-26T01:47:39.824Z,13.07
2017-07-26T01:50:07.892Z,12.30
2017-07-26T01:52:35.931Z,14.87
2017-07-26T01:55:04.009Z,14.60
2017-07-26T01:57:32.052Z,13.50
2017-07-26T02:00:00.427Z,13.70
2017-07-26T02:02:29.189Z,15.40
2017-07-26T02:04:57.324Z,13.53
2017-07-26T02:07:25.406Z,12.80
2017-07-26T02:09:53.452Z,14.47
2017-07-26T02:12:21.779Z,15.87
2017-07-26T02:14:49.849Z,16.93
2017-07-26T02:17:18.148Z,16.83
2017-07-26T02:19:46.230Z,16.10
2017-07-26T02:22:14.311Z,17.77
2017-07-26T02:24:42.734Z,15.03
2017-07-26T02:27:10.768Z,15.83
2017-07-26T02:29:38.830Z,14.97
2017-07-26T02:32:06.900Z,17.90
2017-07-26T02:34:34.960Z,17.90
2017-07-26T02:37:03.328Z,18.17
2017-07-26T02:39:31.378Z,18.77
2017-07-26T02:42:00.376Z,18.90
2017-07-26T02:44:28.452Z,18.10
2017-07-26T02:46:56.518Z,17.13
2017-07-26T02:49:25.243Z,18.00
2017-07-26T02:51:53.789Z,19.20
2017-07-26T02:54:21.849Z,15.47
2017-07-26T02:56:49.889Z,17.80
2017-07-26T02:59:17.940Z,16.43
2017-07-26T03:01:46.260Z,17.57
2017-07-26T03:04:14.326Z,17.53
2017-07-26T03:06:43.875Z,16.77
2017-07-26T03:09:11.949Z,19.40
2017-07-26T03:11:40.025Z,19.60
2017-07-26T03:14:08.417Z,20.00
2017-07-26T03:16:36.505Z,18.20
2017-07-26T03:19:04.566Z,19.07
2017-07-26T03:21:32.611Z,25.20
2017-07-26T03:24:00.679Z,19.77
2017-07-26T03:26:29.048Z,21.00
2017-07-26T03:28:57.093Z,18.83
2017-07-26T03:31:25.198Z,20.93
2017-07-26T03:33:53.269Z,21.50
2017-07-26T03:36:21.333Z,21.20
2017-07-26T03:38:49.638Z,22.00
2017-07-26T03:41:17.683Z,22.87
2017-07-26T03:43:45.780Z,24.40
2017-07-26T03:46:13.839Z,23.30
2017-07-26T03:48:41.897Z,28.30
2017-07-26T03:51:10.251Z,24.87
2017-07-26T03:53:38.330Z,25.23
2017-07-26T03:56:06.385Z,26.17
2017-07-26T03:58:34.463Z,27.70
2017-07-26T04:01:02.524Z,26.60
2017-07-26T04:03:31.028Z,25.87
2017-07-26T04:05:59.140Z,22.90
2017-07-26T04:08:27.190Z,23.13
2017-07-26T04:10:55.252Z,23.50
2017-07-26T04:13:23.338Z,23.43
2017-07-26T04:15:51.673Z,23.43
2017-07-26T04:18:19.725Z,22.17
2017-07-26T04:20:47.823Z,23.57
2017-07-26T04:23:15.880Z,23.77
2017-07-26T04:25:43.950Z,21.60
2017-07-26T04:28:12.278Z,23.30
2017-07-26T04:30:40.330Z,19.53
2017-07-26T04:33:09.077Z,22.27
2017-07-26T04:35:37.210Z,26.00
2017-07-26T04:38:05.303Z,22.77
2017-07-26T04:40:33.644Z,26.63
2017-07-26T04:43:01.691Z,23.97
2017-07-26T04:45:29.761Z,27.57
2017-07-26T04:47:57.819Z,25.00
2017-07-26T04:50:27.030Z,25.10
2017-07-26T04:52:55.356Z,22.17
2017-07-26T04:55:23.410Z,19.77
2017-07-26T04:57:51.523Z,20.67
2017-07-26T05:00:20.416Z,19.07
2017-07-26T05:02:49.815Z,17.20
2017-07-26T05:05:19.399Z,15.00
2017-07-26T05:07:47.362Z,13.83
2017-07-26T05:10:15.694Z,17.17
2017-07-26T05:12:43.808Z,16.20
2017-07-26T05:15:11.860Z,17.53
2017-07-26T05:17:40.852Z,21.57
2017-07-26T05:20:08.907Z,17.83
2017-07-26T05:22:36.939Z,19.70
2017-07-26T05:25:05.012Z,17.53
2017-07-26T05:27:33.059Z,13.73
2017-07-26T05:30:01.391Z,13.97
2017-07-26T05:32:29.451Z,16.10
2017-07-26T05:34:57.524Z,14.70
2017-07-26T05:37:26.591Z,13.83
2017-07-26T05:39:54.659Z,16.63
2017-07-26T05:42:23.033Z,18.40
2017-07-26T05:44:51.124Z,17.40
2017-07-26T05:47:19.195Z,15.37
2017-07-26T05:49:47.515Z,16.10
2017-07-26T05:52:15.612Z,14.40
2017-07-26T05:54:43.670Z,13.90
2017-07-26T05:57:12.010Z,13.20
2017-07-26T05:59:41.031Z,12.87
2017-07-26T06:02:09.114Z,13.63
2017-07-26T06:04:37.185Z,13.50
2017-07-26T06:07:06.414Z,13.67
2017-07-26T06:09:34.485Z,14.50
2017-07-26T06:12:02.549Z,14.60
2017-07-26T06:14:30.625Z,13.43
2017-07-26T06:16:58.984Z,15.53
2017-07-26T06:19:27.095Z,10.57
2017-07-26T06:21:55.141Z,13.70
2017-07-26T06:24:23.453Z,11.10
2017-07-26T06:26:52.653Z,9.10
2017-07-26T06:29:21.473Z,14.60
2017-07-26T06:31:49.758Z,7.10
2017-07-26T06:34:18.039Z,6.77
2017-07-26T06:36:46.341Z,7.80
2017-07-26T06:39:14.625Z,6.77
2017-07-26T06:41:43.406Z,8.37
2017-07-26T06:44:11.705Z,5.07
2017-07-26T06:46:39.983Z,5.83
2017-07-26T06:49:08.262Z,5.83
2017-07-26T06:51:36.553Z,3.83
2017-07-26T06:54:05.939Z,3.97
2017-07-26T06:56:34.209Z,3.97
2017-07-26T06:59:03.633Z,4.97
2017-07-26T07:01:31.948Z,3.63
2017-07-26T07:04:00.263Z,4.73
2017-07-26T07:06:29.046Z,5.93
2017-07-26T07:08:57.314Z,6.73
2017-07-26T07:11:25.841Z,8.83
2017-07-26T07:13:54.127Z,5.93
2017-07-26T07:16:22.424Z,5.40
2017-07-26T07:18:52.027Z,4.43
2017-07-26T07:21:21.671Z,2.60
2017-07-26T07:23:51.194Z,3.57
2017-07-26T07:26:20.708Z,3.30
2017-07-26T07:28:48.878Z,2.30
2017-07-26T07:31:18.789Z,2.77
2017-07-26T07:33:48.329Z,3.95
2017-07-26T07:36:16.509Z,3.97
2017-07-26T07:38:44.862Z,7.43
2017-07-26T07:41:13.156Z,4.60
2017-07-26T07:43:41.734Z,5.77
2017-07-26T07:46:10.053Z,3.13
2017-07-26T07:48:38.346Z,2.73
2017-07-26T07:51:11.025Z,3.20
2017-07-26T07:53:39.290Z,2.40
2017-07-26T07:56:07.881Z,3.37
2017-07-26T07:58:37.367Z,3.13
2017-07-26T08:01:06.418Z,3.03
2017-07-26T08:03:34.830Z,3.20
2017-07-26T08:06:04.281Z,2.93
2017-07-26T08:08:32.852Z,2.53
2017-07-26T08:11:01.133Z,4.63
2017-07-26T08:13:29.437Z,4.17
2017-07-26T08:15:57.784Z,3.40
2017-07-26T08:18:26.085Z,2.43
2017-07-26T08:20:54.633Z,2.60
2017-07-26T08:23:22.977Z,3.27
2017-07-26T08:25:51.329Z,5.23
2017-07-26T08:28:19.621Z,2.37
2017-07-26T08:30:47.931Z,3.27
2017-07-26T08:33:16.493Z,3.63
2017-07-26T08:35:44.815Z,4.20
2017-07-26T08:38:13.110Z,5.10
2017-07-26T08:40:41.410Z,3.70
2017-07-26T08:43:09.701Z,4.30
2017-07-26T08:45:38.253Z,3.60
2017-07-26T08:48:07.345Z,4.07
2017-07-26T08:50:36.435Z,4.77
2017-07-26T08:53:07.096Z,7.63
2017-07-26T08:55:35.684Z,3.87
2017-07-26T08:58:05.796Z,5.03
2017-07-26T09:00:35.538Z,4.90
2017-07-26T09:03:03.813Z,3.00
2017-07-26T09:05:32.129Z,2.97
2017-07-26T09:08:00.426Z,2.90
2017-07-26T09:10:29.850Z,3.70
2017-07-26T09:12:58.145Z,4.07
2017-07-26T09:15:26.455Z,4.30
2017-07-26T09:17:54.768Z,3.97
2017-07-26T09:20:23.937Z,4.10
2017-07-26T09:22:52.522Z,4.47
2017-07-26T09:25:20.801Z,4.27
2017-07-26T09:27:49.117Z,6.50
2017-07-26T09:30:17.379Z,3.70
2017-07-26T09:32:45.704Z,4.45
2017-07-26T09:35:14.271Z,3.13
2017-07-26T09:37:42.593Z,5.70
2017-07-26T09:40:10.847Z,4.27
2017-07-26T09:42:39.169Z,3.40
2017-07-26T09:45:07.456Z,2.67
2017-07-26T09:47:36.020Z,8.30
2017-07-26T09:50:04.316Z,3.13
2017-07-26T09:52:32.629Z,4.80
2017-07-26T09:55:00.930Z,2.63
2017-07-26T09:57:29.211Z,4.50
2017-07-26T09:59:57.766Z,3.17
2017-07-26T10:02:26.078Z,3.80
2017-07-26T10:04:54.378Z,3.37
2017-07-26T10:07:22.693Z,3.10
2017-07-26T10:09:50.988Z,3.73
2017-07-26T10:12:19.554Z,3.50
2017-07-26T10:14:47.865Z,5.93
2017-07-26T10:17:16.199Z,4.50
2017-07-26T10:19:44.504Z,3.42
2017-07-26T10:24:50.359Z,4.63
2017-07-26T10:27:19.451Z,3.50
2017-07-26T10:29:47.746Z,3.30
2017-07-26T10:32:16.048Z,4.00
2017-07-26T10:34:45.154Z,5.27
2017-07-26T10:37:13.764Z,3.40
2017-07-26T10:39:42.093Z,4.82
2017-07-26T10:42:10.379Z,4.40
2017-07-26T10:44:38.706Z,3.40
2017-07-26T10:47:07.007Z,13.90
2017-07-26T10:49:36.303Z,5.27
2017-07-26T10:52:05.371Z,6.40
2017-07-26T10:54:33.761Z,5.63
2017-07-26T10:57:11.723Z,5.10
2017-07-26T10:59:40.082Z,5.10
2017-07-26T11:02:09.516Z,3.70
2017-07-26T11:04:38.629Z,5.00
2017-07-26T11:07:06.952Z,4.13
2017-07-26T11:09:35.851Z,3.93
2017-07-26T11:12:04.151Z,6.93
2017-07-26T11:14:32.716Z,4.97
2017-07-26T11:17:01.080Z,4.80
2017-07-26T11:19:29.378Z,7.20
2017-07-26T11:21:58.695Z,4.60
2017-07-26T11:24:27.768Z,5.30
2017-07-26T11:26:56.474Z,6.07
2017-07-26T11:29:24.769Z,5.03
2017-07-26T11:31:53.945Z,5.40
2017-07-26T11:34:22.247Z,5.40
2017-07-26T11:36:51.158Z,5.40
2017-07-26T11:39:19.489Z,4.80
2017-07-26T11:41:48.043Z,4.57
2017-07-26T11:44:16.498Z,4.60
2017-07-26T11:46:45.205Z,5.43
2017-07-26T11:49:13.507Z,4.50
2017-07-26T11:51:41.806Z,5.67
2017-07-26T11:54:10.128Z,6.07
2017-07-26T11:56:38.448Z,6.20
2017-07-26T11:59:07.060Z,4.97
2017-07-26T12:01:36.154Z,5.50
2017-07-26T12:04:05.400Z,5.37
2017-07-26T12:06:35.431Z,6.18
2017-07-26T12:09:04.428Z,8.70
2017-07-26T12:11:33.235Z,5.30
2017-07-26T12:14:03.831Z,6.40
2017-07-26T12:16:32.185Z,8.83
2017-07-26T12:19:01.463Z,5.87
2017-07-26T12:21:30.706Z,6.53
2017-07-26T12:23:59.364Z,6.20
2017-07-26T12:26:28.508Z,7.23
2017-07-26T12:28:56.833Z,6.27
2017-07-26T12:31:25.137Z,7.63
2017-07-26T12:33:53.795Z,6.87
2017-07-26T12:36:23.245Z,5.50
2017-07-26T12:38:52.695Z,11.07
2017-07-26T12:41:21.016Z,8.17
2017-07-26T12:43:49.837Z,11.33
2017-07-26T12:46:18.133Z,6.32
2017-07-26T12:48:46.739Z,5.17
2017-07-26T12:51:16.572Z,6.33
2017-07-26T12:53:44.914Z,7.22
2017-07-26T12:56:13.672Z,6.90
2017-07-26T12:58:41.958Z,9.33
2017-07-26T13:01:11.034Z,5.97
2017-07-26T13:03:39.310Z,5.80
2017-07-26T13:06:08.374Z,7.67
2017-07-26T13:08:36.686Z,7.67
2017-07-26T13:11:05.777Z,8.20
2017-07-26T13:13:34.412Z,7.63
2017-07-26T13:16:04.321Z,6.80
2017-07-26T13:18:33.770Z,8.77
2017-07-26T13:21:02.109Z,9.93
2017-07-26T13:23:31.333Z,10.23
2017-07-26T13:25:59.874Z,8.43
2017-07-26T13:28:28.932Z,13.13
2017-07-26T13:30:57.803Z,9.10
2017-07-26T13:33:26.722Z,8.10
2017-07-26T13:35:55.020Z,9.57
2017-07-26T13:38:24.257Z,8.80
2017-07-26T13:40:53.655Z,10.73
2017-07-26T13:43:21.938Z,11.10
2017-07-26T13:45:51.010Z,10.60
2017-07-26T13:48:19.340Z,11.93
2017-07-26T13:50:48.374Z,15.40
2017-07-26T13:53:16.985Z,14.87
2017-07-26T13:55:45.298Z,12.93
2017-07-26T13:58:14.355Z,17.57
2017-07-26T14:00:42.779Z,29.60
2017-07-26T14:03:11.121Z,20.53
2017-07-26T14:05:40.167Z,21.63
2017-07-26T14:08:09.221Z,19.17
2017-07-26T14:10:37.526Z,12.70
2017-07-26T14:13:06.133Z,13.30
2017-07-26T14:15:34.450Z,15.43
2017-07-26T14:18:02.764Z,13.23
2017-07-26T14:20:31.139Z,15.43
2017-07-26T14:22:59.455Z,15.07
2017-07-26T14:25:28.917Z,17.33
2017-07-26T14:27:57.467Z,14.53
2017-07-26T14:30:25.810Z,13.30
2017-07-26T14:32:54.160Z,14.60
2017-07-26T14:35:23.353Z,17.47
2017-07-26T14:37:52.012Z,11.80
2017-07-26T14:40:20.403Z,12.20
2017-07-26T14:42:48.785Z,13.00
2017-07-26T14:45:17.090Z,18.13
2017-07-26T14:47:45.401Z,36.60
2017-07-26T14:50:15.135Z,16.93
2017-07-26T14:52:43.509Z,60.00
2017-07-26T14:55:11.825Z,20.97
2017-07-26T14:57:40.136Z,20.10
2017-07-26T15:00:08.505Z,19.63
2017-07-26T15:02:37.872Z,21.37
2017-07-26T15:05:07.718Z,17.55
2017-07-26T15:07:36.898Z,16.00
2017-07-26T15:10:05.197Z,14.80
2017-07-26T15:12:33.492Z,12.63
2017-07-26T15:15:02.838Z,16.37
2017-07-26T15:17:31.099Z,16.83
2017-07-26T15:19:59.420Z,13.67
2017-07-26T15:22:27.783Z,13.93
2017-07-26T15:24:56.063Z,12.47
2017-07-26T15:27:25.102Z,16.40
2017-07-26T15:29:53.849Z,13.00
2017-07-26T15:32:22.154Z,18.00
2017-07-26T15:34:50.516Z,12.93
2017-07-26T15:37:18.806Z,14.10
2017-07-26T15:39:47.413Z,15.67
2017-07-26T15:42:15.713Z,16.10
2017-07-26T15:44:44.037Z,17.07
2017-07-26T15:47:12.350Z,21.47
2017-07-26T15:49:40.627Z,15.77
2017-07-26T15:52:09.253Z,22.13
2017-07-26T15:54:37.551Z,22.23
2017-07-26T15:57:06.634Z,12.33
2017-07-26T15:59:35.941Z,13.47
2017-07-26T16:02:04.430Z,17.17
2017-07-26T16:04:33.083Z,17.73
2017-07-26T16:07:01.488Z,22.67
2017-07-26T16:09:30.017Z,21.27
2017-07-26T16:11:58.350Z,17.30
2017-07-26T16:14:26.842Z,16.93
2017-07-26T16:16:55.426Z,14.47
2017-07-26T16:19:23.725Z,18.67
2017-07-26T16:21:52.053Z,21.43
2017-07-26T16:24:20.364Z,19.77
2017-07-26T16:26:48.673Z,18.77
2017-07-26T16:29:17.293Z,18.47
2017-07-26T16:31:46.377Z,14.17
2017-07-26T16:34:15.434Z,13.07
2017-07-26T16:36:44.590Z,14.00
2017-07-26T16:39:12.912Z,15.77
2017-07-26T16:41:42.506Z,13.07
2017-07-26T16:44:11.201Z,15.93
2017-07-26T16:46:39.849Z,16.80
2017-07-26T16:49:09.740Z,14.87
2017-07-26T16:51:38.633Z,15.03
2017-07-26T16:54:07.395Z,16.03
2017-07-26T16:56:36.067Z,15.77
2017-07-26T16:59:04.421Z,14.10
2017-07-26T17:01:32.745Z,22.40
2017-07-26T17:04:01.090Z,42.23
2017-07-26T17:06:30.141Z,23.93
2017-07-26T17:08:58.456Z,16.70
2017-07-26T17:11:26.829Z,16.30
2017-07-26T17:13:56.352Z,16.80
2017-07-26T17:16:25.434Z,15.20
2017-07-26T17:18:54.129Z,15.83
2017-07-26T17:21:23.309Z,16.53
2017-07-26T17:23:52.227Z,21.03
2017-07-26T17:26:20.809Z,16.77
2017-07-26T17:28:49.904Z,15.40
2017-07-26T17:31:18.556Z,11.97
2017-07-26T17:33:46.841Z,11.33
2017-07-26T17:36:15.131Z,13.33
2017-07-26T17:38:44.444Z,11.87
2017-07-26T17:41:12.761Z,10.23
2017-07-26T17:43:41.053Z,11.60
2017-07-26T17:46:09.362Z,13.70
2017-07-26T17:48:38.393Z,14.50
2017-07-26T17:51:07.096Z,12.63
2017-07-26T17:53:35.898Z,13.50
2017-07-26T17:56:04.183Z,13.03
2017-07-26T17:58:32.508Z,11.60
2017-07-26T18:01:00.805Z,11.27
2017-07-26T18:03:29.437Z,10.73
2017-07-26T18:05:58.578Z,12.80
2017-07-26T18:08:26.870Z,14.13
2017-07-26T18:10:55.215Z,12.03
2017-07-26T18:13:24.487Z,14.70
2017-07-26T18:15:53.100Z,15.63
2017-07-26T18:18:21.953Z,14.63
2017-07-26T18:20:50.276Z,14.47
2017-07-26T18:23:18.573Z,14.63
2017-07-26T18:25:47.761Z,13.10
2017-07-26T18:28:16.337Z,12.70
2017-07-26T18:30:44.662Z,13.13
2017-07-26T18:33:12.972Z,13.07
2017-07-26T18:35:41.389Z,12.10
2017-07-26T18:38:09.676Z,13.03
2017-07-26T18:40:38.222Z,12.20
2017-07-26T18:43:06.880Z,11.63
2017-07-26T18:45:35.958Z,10.63
2017-07-26T18:48:04.261Z,13.50
2017-07-26T18:50:33.308Z,12.13
2017-07-26T18:53:02.019Z,12.37
2017-07-26T18:55:30.316Z,12.13
2017-07-26T18:57:59.678Z,13.33
2017-07-26T19:00:27.987Z,12.50
2017-07-26T19:02:56.474Z,11.83
2017-07-26T19:05:25.625Z,14.27
2017-07-26T19:07:55.519Z,12.97
2017-07-26T19:10:25.287Z,18.83
2017-07-26T19:12:53.630Z,23.13
2017-07-26T19:15:22.712Z,19.10
2017-07-26T19:17:51.965Z,20.50
2017-07-26T19:20:20.257Z,22.07
2017-07-26T19:22:48.852Z,20.77
2017-07-26T19:25:17.145Z,21.33
2017-07-26T19:27:46.248Z,25.53
2017-07-26T19:30:15.360Z,23.10
2017-07-26T19:32:44.574Z,26.03
2017-07-26T19:35:13.135Z,22.50
2017-07-26T19:37:41.425Z,23.80
2017-07-26T19:40:10.653Z,24.73
2017-07-26T19:42:38.998Z,25.60
2017-07-26T19:45:07.295Z,27.80
2017-07-26T19:47:35.869Z,22.03
2017-07-26T19:50:04.163Z,21.43
2017-07-26T19:52:33.152Z,30.50
2017-07-26T19:55:01.523Z,25.73
2017-07-26T19:57:29.835Z,26.23
2017-07-26T19:59:58.528Z,28.60
2017-07-26T20:02:27.712Z,31.83
2017-07-26T20:04:56.018Z,32.00
2017-07-26T20:07:25.096Z,26.93
2017-07-26T20:09:53.377Z,25.80
2017-07-26T20:12:21.984Z,24.23
2017-07-26T20:14:51.062Z,23.17
2017-07-26T20:17:19.354Z,24.27
2017-07-26T20:19:47.671Z,24.50
2017-07-26T20:22:15.948Z,22.33
2017-07-26T20:24:44.599Z,26.83
2017-07-26T20:27:12.910Z,24.83
2017-07-26T20:29:41.952Z,26.03
2017-07-26T20:32:10.273Z,22.33
2017-07-26T20:34:39.336Z,22.23
2017-07-26T20:37:08.441Z,21.67
2017-07-26T20:39:36.719Z,21.83
2017-07-26T20:42:05.009Z,19.37
2017-07-26T20:44:33.341Z,19.70
2017-07-26T20:47:02.412Z,20.33
2017-07-26T20:49:31.073Z,23.97
2017-07-26T20:51:59.389Z,16.83
2017-07-26T20:54:27.668Z,20.50
2017-07-26T20:56:55.968Z,20.17
2017-07-26T20:59:26.621Z,24.23
2017-07-26T21:01:55.256Z,21.20
2017-07-26T21:04:23.557Z,21.00
2017-07-26T21:06:51.831Z,18.03
2017-07-26T21:09:20.146Z,16.63
2017-07-26T21:11:48.444Z,19.73
2017-07-26T21:14:17.056Z,22.20
2017-07-26T21:16:45.339Z,21.67
2017-07-26T21:19:13.653Z,16.37
2017-07-26T21:21:41.954Z,16.77
2017-07-26T21:24:10.249Z,16.37
2017-07-26T21:26:38.827Z,16.20
2017-07-26T21:29:07.909Z,21.77
2017-07-26T21:31:36.234Z,15.40
2017-07-26T21:34:04.548Z,16.07
2017-07-26T21:36:32.839Z,15.07
2017-07-26T21:39:01.428Z,16.20
2017-07-26T21:41:29.756Z,15.77
2017-07-26T21:43:58.842Z,19.13
2017-07-26T21:46:28.152Z,15.13
2017-07-26T21:48:56.620Z,14.77
2017-07-26T21:51:26.024Z,15.70
2017-07-26T21:53:55.269Z,16.73
2017-07-26T21:56:24.395Z,19.10
2017-07-26T21:58:52.799Z,15.27
2017-07-26T22:01:21.376Z,14.43
2017-07-26T22:03:49.690Z,16.93
2017-07-26T22:06:18.725Z,15.10
2017-07-26T22:08:47.354Z,15.20
2017-07-26T22:11:15.616Z,13.10
2017-07-26T22:13:43.919Z,14.20
2017-07-26T22:16:12.505Z,15.80
2017-07-26T22:18:40.769Z,20.13
2017-07-26T22:21:09.071Z,16.10
2017-07-26T22:23:37.644Z,14.90
2017-07-26T22:26:06.104Z,13.10
2017-07-26T22:28:34.374Z,13.90
2017-07-26T22:31:03.116Z,16.67
2017-07-26T22:33:31.397Z,14.93
2017-07-26T22:35:59.681Z,12.50
2017-07-26T22:38:28.250Z,19.90
2017-07-26T22:40:56.568Z,19.10
2017-07-26T22:43:25.631Z,19.17
2017-07-26T22:45:54.251Z,13.97
2017-07-26T22:48:22.554Z,15.30
2017-07-26T22:50:50.854Z,17.97
2017-07-26T22:53:19.482Z,18.90
2017-07-26T22:55:47.768Z,15.07
2017-07-26T22:58:16.078Z,20.63
2017-07-26T23:00:45.868Z,17.30
2017-07-26T23:03:14.164Z,17.17
2017-07-26T23:05:42.783Z,22.97
2017-07-26T23:08:11.412Z,16.93
2017-07-26T23:10:39.711Z,15.03
2017-07-26T23:13:07.989Z,13.90
2017-07-26T23:15:36.571Z,21.83
2017-07-26T23:18:04.858Z,15.90
2017-07-26T23:20:33.138Z,16.07
2017-07-26T23:23:01.712Z,16.80
2017-07-26T23:25:30.922Z,23.33
2017-07-26T23:27:59.311Z,20.80
2017-07-26T23:30:27.898Z,19.97
2017-07-26T23:32:56.394Z,21.67
2017-07-26T23:35:24.664Z,15.90
2017-07-26T23:37:53.386Z,16.57
2017-07-26T23:40:22.442Z,19.20
2017-07-26T23:42:50.738Z,17.27
2017-07-26T23:45:19.316Z,17.93
2017-07-26T23:47:47.641Z,18.57
2017-07-26T23:50:16.713Z,17.10
2017-07-26T23:52:45.299Z,19.53
2017-07-26T23:55:13.582Z,20.47
2017-07-26T23:57:41.865Z,17.23
